Time;durP1;ratioP1;P1;durP2;ratioP2;P2;SDS_P1;SDS_P2;PMS_P1;PMS_P2;Temp;Humidity;BMP_temperature;BMP_pressure;BME280_temperature;BME280_humidity;BME280_pressure;Samples;Min_cycle;Max_cycle;Signal;HPM_P1;HPM_P2
2020/12/18 00:03:16;;;;;;;19.27;14.30;;;;;;;8.82;78.98;101055.52;2831974;83;21174;-64
2020/12/18 00:07:28;;;;;;;25.95;12.78;;;;;;;8.73;79.26;101058.73;2827005;83;21170;-66
2020/12/18 00:11:46;;;;;;;22.25;12.63;;;;;;;8.61;79.77;101060.34;2827749;83;21153;-67
2020/12/18 00:16:11;;;;;;;14.33;10.28;;;;;;;8.59;80.25;101054.28;3057041;77;21142;-65
2020/12/18 00:20:23;;;;;;;18.02;12.50;;;;;;;8.55;80.25;101060.73;3006801;79;21142;-65
2020/12/18 00:24:31;;;;;;;19.40;13.15;;;;;;;8.60;80.34;101064.44;3006806;79;21152;-66
2020/12/18 00:28:39;;;;;;;20.35;11.70;;;;;;;8.68;80.04;101067.45;3006743;79;21124;-65
2020/12/18 00:32:48;;;;;;;18.73;12.85;;;;;;;8.68;79.88;101068.32;3006491;79;21567;-65
2020/12/18 00:36:52;;;;;;;16.77;12.33;;;;;;;8.77;79.82;101070.02;3006876;79;21121;-64
2020/12/18 00:40:57;;;;;;;17.00;11.95;;;;;;;8.84;79.36;101075.30;2955685;79;22206;-64
2020/12/18 00:45:00;;;;;;;20.55;12.65;;;;;;;8.88;79.05;101073.33;2950896;80;21138;-64
2020/12/18 00:49:04;;;;;;;16.25;11.68;;;;;;;8.84;79.11;101076.63;2952404;80;21133;-66
2020/12/18 00:53:08;;;;;;;18.57;12.98;;;;;;;8.81;79.02;101078.16;2953434;80;21148;-66
2020/12/18 00:57:12;;;;;;;15.40;11.93;;;;;;;8.81;79.12;101079.48;2953688;80;21105;-64
2020/12/18 01:01:14;;;;;;;17.73;13.45;;;;;;;8.86;79.08;101081.40;2953792;80;21137;-65
2020/12/18 01:05:18;;;;;;;21.93;13.88;;;;;;;8.85;79.07;101091.14;2952182;80;21481;-66
2020/12/18 01:09:23;;;;;;;19.23;12.75;;;;;;;8.90;79.02;101097.50;2951339;80;21169;-65
2020/12/18 01:13:26;;;;;;;17.87;11.93;;;;;;;8.89;78.75;101099.78;2950357;80;21173;-65
2020/12/18 01:17:28;;;;;;;23.27;13.55;;;;;;;8.92;78.72;101100.91;2952163;80;21141;-65
2020/12/18 01:21:32;;;;;;;25.85;14.35;;;;;;;8.93;78.44;101096.44;2952065;80;21316;-65
2020/12/18 01:25:35;;;;;;;17.50;11.38;;;;;;;8.91;78.17;101107.63;2951499;80;21094;-65
2020/12/18 01:29:38;;;;;;;21.30;12.75;;;;;;;8.85;78.21;101112.86;2950951;80;21455;-66
2020/12/18 01:33:41;;;;;;;21.65;13.03;;;;;;;8.81;78.27;101117.95;2950839;80;21535;-65
2020/12/18 01:37:44;;;;;;;17.77;12.65;;;;;;;8.79;78.09;101122.50;2950998;80;21109;-65
2020/12/18 01:41:47;;;;;;;20.30;13.88;;;;;;;8.76;78.02;101122.23;2951375;80;21129;-65
2020/12/18 01:45:50;;;;;;;21.10;14.40;;;;;;;8.70;77.94;101132.73;2950912;80;21137;-66
2020/12/18 01:49:54;;;;;;;24.65;15.68;;;;;;;8.67;78.07;101134.25;2950745;80;21165;-64
2020/12/18 01:53:57;;;;;;;21.23;12.78;;;;;;;8.66;78.14;101146.27;2950493;79;21148;-65
2020/12/18 01:58:02;;;;;;;18.52;14.07;;;;;;;8.63;78.20;101144.64;2951115;80;21113;-65
2020/12/18 02:02:05;;;;;;;17.23;14.53;;;;;;;8.62;78.21;101147.41;2951010;80;21101;-64
2020/12/18 02:06:15;;;;;;;25.48;12.05;;;;;;;8.57;78.24;101150.32;2950906;80;21129;-65
2020/12/18 02:10:19;;;;;;;18.87;12.88;;;;;;;8.51;77.95;101153.34;2950918;80;21110;-64
2020/12/18 02:14:23;;;;;;;16.85;11.65;;;;;;;8.41;77.78;101153.01;2951859;80;21141;-66
2020/12/18 02:18:26;;;;;;;15.90;10.03;;;;;;;8.24;78.09;101153.98;2953647;80;21721;-65
2020/12/18 02:22:33;;;;;;;19.40;10.65;;;;;;;8.11;78.56;101155.16;2953501;80;21137;-65
2020/12/18 02:26:36;;;;;;;17.90;13.25;;;;;;;8.18;78.72;101153.02;2954050;80;21097;-66
2020/12/18 02:30:39;;;;;;;12.10;8.88;;;;;;;8.22;78.63;101155.86;2953714;80;21137;-65
2020/12/18 02:34:42;;;;;;;16.42;10.55;;;;;;;8.26;78.51;101152.12;2953388;80;21117;-66
2020/12/18 02:38:47;;;;;;;12.65;11.00;;;;;;;8.33;78.48;101156.56;2953795;80;21145;-64
2020/12/18 02:42:50;;;;;;;16.25;9.83;;;;;;;8.39;78.25;101157.06;2951501;79;21124;-66
2020/12/18 02:46:53;;;;;;;15.30;10.70;;;;;;;8.39;77.66;101158.39;2950618;80;21102;-65
2020/12/18 02:50:57;;;;;;;11.53;8.93;;;;;;;8.34;77.15;101155.16;2953387;80;21146;-66
2020/12/18 02:55:00;;;;;;;11.93;8.18;;;;;;;8.14;76.82;101155.85;2933850;80;21140;-66
2020/12/18 02:59:03;;;;;;;15.95;11.57;;;;;;;8.02;76.77;101163.66;2838692;83;21609;-65
2020/12/18 03:03:07;;;;;;;18.10;10.85;;;;;;;7.87;76.67;101160.93;2810154;83;21615;-65
2020/12/18 03:07:10;;;;;;;19.25;11.97;;;;;;;7.75;76.34;101167.77;2852865;83;21125;-64
2020/12/18 03:11:18;;;;;;;14.58;11.90;;;;;;;7.62;76.12;101165.41;2852776;83;21153;-64
2020/12/18 03:15:21;;;;;;;14.03;10.32;;;;;;;7.44;76.01;101173.42;2852093;83;21129;-65
2020/12/18 03:19:24;;;;;;;20.30;12.55;;;;;;;7.33;75.98;101171.36;2851300;83;21153;-64
2020/12/18 03:23:27;;;;;;;18.40;12.88;;;;;;;7.25;76.14;101170.94;2851870;83;21117;-64
2020/12/18 03:27:32;;;;;;;14.83;10.93;;;;;;;7.14;75.89;101167.05;2851913;83;21125;-65
2020/12/18 03:31:35;;;;;;;18.50;11.97;;;;;;;7.12;75.51;101175.55;2852066;83;21109;-65
2020/12/18 03:35:39;;;;;;;17.57;10.95;;;;;;;7.04;75.44;101175.56;2851545;83;21145;-65
2020/12/18 03:39:41;;;;;;;18.55;12.13;;;;;;;6.98;75.29;101184.22;2851899;82;21141;-65
2020/12/18 03:43:45;;;;;;;14.05;11.33;;;;;;;6.84;75.47;101177.02;2852022;83;21086;-65
2020/12/18 03:47:48;;;;;;;14.63;11.00;;;;;;;6.73;75.81;101181.98;2851961;83;21161;-65
2020/12/18 03:51:51;;;;;;;16.07;11.25;;;;;;;6.65;76.00;101180.22;2850561;83;21125;-64
2020/12/18 03:55:54;;;;;;;17.95;13.48;;;;;;;6.60;75.87;101180.93;2848764;83;21188;-64
2020/12/18 03:59:57;;;;;;;17.17;11.05;;;;;;;6.58;75.61;101183.63;2849151;83;21141;-68
2020/12/18 04:04:00;;;;;;;15.85;10.80;;;;;;;6.54;75.21;101180.77;2850413;83;21106;-64
2020/12/18 04:08:06;;;;;;;18.02;10.43;;;;;;;6.50;75.05;101184.50;2849119;83;21189;-65
2020/12/18 04:12:09;;;;;;;17.32;10.63;;;;;;;6.49;74.97;101189.41;2848382;83;21402;-65
2020/12/18 04:16:12;;;;;;;20.48;12.37;;;;;;;6.46;74.67;101191.72;2859366;83;21157;-63
2020/12/18 04:20:16;;;;;;;16.50;10.78;;;;;;;6.39;74.82;101192.48;2862115;83;21145;-64
2020/12/18 04:24:19;;;;;;;13.32;10.05;;;;;;;6.33;74.35;101202.50;2863072;83;21150;-64
2020/12/18 04:28:22;;;;;;;12.85;8.50;;;;;;;6.16;74.54;101199.37;2864005;81;21148;-66
2020/12/18 04:32:26;;;;;;;25.37;10.28;;;;;;;6.06;74.85;101201.61;2862915;83;21161;-67
2020/12/18 04:36:29;;;;;;;14.83;9.10;;;;;;;5.89;75.29;101202.36;2862581;83;21591;-67
2020/12/18 04:40:34;;;;;;;13.32;8.95;;;;;;;5.71;76.16;101206.30;2863068;83;21415;-67
2020/12/18 04:44:38;;;;;;;10.80;8.18;;;;;;;5.63;76.84;101207.09;2862724;83;21944;-66
2020/12/18 04:48:43;;;;;;;11.63;8.90;;;;;;;5.66;77.08;101205.18;2862961;83;21085;-67
2020/12/18 04:52:48;;;;;;;12.25;9.10;;;;;;;5.66;76.98;101199.91;2862914;83;21413;-68
2020/12/18 04:56:51;;;;;;;12.25;8.00;;;;;;;5.61;77.24;101200.59;2862686;83;21117;-65
2020/12/18 05:00:59;;;;;;;10.95;7.87;;;;;;;5.57;77.69;101198.55;2864144;81;21121;-67
2020/12/18 05:05:02;;;;;;;12.75;10.18;;;;;;;5.51;77.82;101194.01;2864289;83;21600;-68
2020/12/18 05:09:05;;;;;;;11.73;7.92;;;;;;;5.45;77.80;101197.78;2863287;83;21169;-68
2020/12/18 05:13:10;;;;;;;12.15;8.58;;;;;;;5.35;77.94;101201.77;2865465;83;21129;-68
2020/12/18 05:17:13;;;;;;;11.68;7.67;;;;;;;5.28;78.09;101205.15;2852822;83;21486;-68
2020/12/18 05:21:18;;;;;;;8.63;6.55;;;;;;;5.23;78.21;101211.10;2852105;83;21124;-64
2020/12/18 05:25:24;;;;;;;52.83;37.13;;;;;;;5.20;78.27;101216.48;2848284;82;21178;-68
2020/12/18 05:29:30;;;;;;;16.20;9.78;;;;;;;5.19;78.20;101215.65;2850129;82;21153;-67
2020/12/18 05:33:34;;;;;;;14.58;8.08;;;;;;;5.12;78.07;101222.12;2850703;83;21185;-66
2020/12/18 05:37:40;;;;;;;10.63;7.85;;;;;;;5.05;78.22;101221.98;2851610;82;21185;-69
2020/12/18 05:41:48;;;;;;;19.02;15.32;;;;;;;4.99;78.44;101223.97;2842711;83;21149;-66
2020/12/18 05:46:03;;;;;;;18.55;11.48;;;;;;;4.99;78.62;101221.34;2997075;77;22903;-66
2020/12/18 05:50:09;;;;;;;15.00;9.68;;;;;;;4.92;78.38;101232.21;2951103;80;21129;-65
2020/12/18 05:54:19;;;;;;;;;;;;;;;4.88;77.98;101238.55;2953979;80;21576;-65
2020/12/18 05:58:25;;;;;;;15.58;9.90;;;;;;;4.86;77.86;101235.52;2907205;80;20173;-67
2020/12/18 06:02:32;;;;;;;17.52;11.33;;;;;;;4.96;78.27;101243.89;2870009;83;21176;-66
2020/12/18 06:06:40;;;;;;;12.82;11.05;;;;;;;5.00;77.72;101238.00;2870083;83;21092;-66
2020/12/18 06:10:45;;;;;;;24.72;17.40;;;;;;;5.00;77.29;101234.91;2870352;83;21156;-65
2020/12/18 06:14:50;;;;;;;22.93;14.83;;;;;;;5.07;77.36;101234.64;2869975;83;21183;-66
2020/12/18 06:19:03;;;;;;;17.45;14.30;;;;;;;5.16;77.15;101240.84;2870324;83;21176;-65
2020/12/18 06:23:06;;;;;;;19.85;12.53;;;;;;;5.24;76.74;101243.16;2870165;81;21168;-66
2020/12/18 06:27:16;;;;;;;17.42;12.73;;;;;;;5.25;76.37;101243.06;2869782;83;21171;-65
2020/12/18 06:31:34;;;;;;;16.27;12.78;;;;;;;5.24;75.84;101247.11;2870037;83;21144;-67
2020/12/18 06:35:37;;;;;;;15.98;11.35;;;;;;;5.18;75.67;101258.78;2869966;81;21153;-66
2020/12/18 06:39:40;;;;;;;18.00;12.85;;;;;;;5.09;75.90;101257.84;2839866;82;21656;-66
2020/12/18 06:43:43;;;;;;;19.50;10.35;;;;;;;5.03;75.93;101265.58;2821514;84;21626;-66
2020/12/18 06:47:46;;;;;;;14.70;9.78;;;;;;;5.02;76.31;101263.00;2821300;84;21160;-66
2020/12/18 06:51:52;;;;;;;17.85;9.85;;;;;;;5.03;76.32;101270.86;2821531;84;21555;-67
2020/12/18 06:55:55;;;;;;;20.80;11.83;;;;;;;5.06;75.97;101272.48;2873769;80;21112;-67
2020/12/18 07:00:28;;;;;;;26.60;16.32;;;;;;;5.05;75.71;101273.41;2904374;80;21151;-67
2020/12/18 07:04:37;;;;;;;23.92;13.78;;;;;;;5.08;75.95;101279.87;2903889;82;21113;-67
2020/12/18 07:08:41;;;;;;;21.93;13.65;;;;;;;5.07;76.10;101284.75;2876889;81;21104;-68
2020/12/18 07:12:50;;;;;;;16.25;11.18;;;;;;;4.98;76.50;101285.55;2904537;81;21495;-67
2020/12/18 07:16:57;;;;;;;15.75;10.35;;;;;;;4.92;77.08;101292.41;2849996;82;21121;-67
2020/12/18 07:21:04;;;;;;;;;;;;;;;4.87;77.63;101293.04;2852595;83;21157;-68
2020/12/18 07:25:12;;;;;;;15.10;9.60;;;;;;;4.87;78.11;101299.62;2849770;83;20187;-67
2020/12/18 07:29:12;;;;;;;11.83;8.48;;;;;;;4.88;78.38;101295.23;2849764;83;21157;-67
2020/12/18 07:33:18;;;;;;;13.55;9.40;;;;;;;4.89;78.78;101303.06;2849915;83;21165;-67
2020/12/18 07:37:21;;;;;;;;;;;;;;;4.99;79.02;101305.72;2852116;83;21722;-67
2020/12/18 07:41:29;;;;;;;16.70;10.50;;;;;;;5.11;78.91;101303.02;2849861;83;20270;-67
2020/12/18 07:45:40;;;;;;;18.57;12.23;;;;;;;5.31;78.88;101307.91;2849408;83;21113;-67
2020/12/18 07:49:44;;;;;;;18.10;12.13;;;;;;;5.47;78.58;101312.03;2849042;83;21134;-67
2020/12/18 07:53:55;;;;;;;13.03;8.15;;;;;;;5.61;78.00;101307.48;2849591;83;21149;-67
2020/12/18 07:57:59;;;;;;;15.75;10.00;;;;;;;5.68;78.01;101306.72;2849586;83;21152;-67
2020/12/18 08:02:02;;;;;;;20.72;11.05;;;;;;;5.71;78.03;101309.25;2849654;83;21145;-66
2020/12/18 08:06:08;;;;;;;20.17;11.18;;;;;;;5.77;78.18;101305.45;2849537;83;21121;-67
2020/12/18 08:10:14;;;;;;;16.27;11.18;;;;;;;5.84;78.43;101307.75;2849683;83;21611;-67
2020/12/18 08:14:18;;;;;;;17.23;11.15;;;;;;;5.96;78.25;101305.48;2849635;83;21168;-66
2020/12/18 08:18:21;;;;;;;14.33;10.10;;;;;;;6.04;78.38;101311.77;2849913;83;21564;-67
2020/12/18 08:22:28;;;;;;;15.53;10.03;;;;;;;6.11;78.11;101314.51;2849695;83;21137;-66
2020/12/18 08:26:35;;;;;;;17.40;11.08;;;;;;;6.19;78.15;101315.02;2849741;83;21145;-68
2020/12/18 08:30:40;;;;;;;12.82;9.70;;;;;;;6.28;78.11;101325.59;2849980;83;21121;-68
2020/12/18 08:34:45;;;;;;;13.98;10.65;;;;;;;6.35;78.21;101326.16;2849672;83;21181;-68
2020/12/18 08:39:09;;;;;;;17.40;9.03;;;;;;;6.46;78.34;101329.17;2849425;83;21194;-66
2020/12/18 08:43:13;;;;;;;14.95;11.48;;;;;;;6.60;78.39;101332.46;2851581;82;21455;-67
2020/12/18 08:47:23;;;;;;;17.87;11.00;;;;;;;6.70;78.35;101340.35;2871971;82;21590;-67
2020/12/18 08:51:28;;;;;;;18.32;12.07;;;;;;;6.82;78.19;101330.95;2871998;82;21176;-67
2020/12/18 08:55:31;;;;;;;14.87;11.53;;;;;;;6.96;78.21;101346.14;2872185;82;21168;-66
2020/12/18 08:59:34;;;;;;;17.92;11.53;;;;;;;7.10;77.79;101341.95;2871911;82;21607;-67
2020/12/18 09:03:41;;;;;;;15.10;9.73;;;;;;;7.23;77.90;101346.16;2872054;82;21176;-67
2020/12/18 09:08:03;;;;;;;21.93;12.35;;;;;;;7.38;77.81;101341.86;2872109;82;21141;-66
2020/12/18 09:12:18;;;;;;;21.55;13.68;;;;;;;7.54;77.54;101344.10;2872071;82;21129;-67
2020/12/18 09:16:24;;;;;;;18.92;12.73;;;;;;;7.68;77.26;101344.69;2871974;82;21144;-68
2020/12/18 09:20:30;;;;;;;17.60;12.23;;;;;;;7.83;77.31;101339.04;2872369;82;21152;-66
2020/12/18 09:24:34;;;;;;;15.53;9.83;;;;;;;7.95;76.80;101344.63;2872328;82;21156;-66
2020/12/18 09:28:40;;;;;;;13.48;10.32;;;;;;;8.06;76.51;101339.63;2872086;82;21167;-67
2020/12/18 09:32:44;;;;;;;11.93;9.70;;;;;;;8.18;76.73;101339.41;2872152;82;21603;-68
2020/12/18 09:36:47;;;;;;;13.88;9.18;;;;;;;8.34;76.70;101332.78;2872238;82;21144;-66
2020/12/18 09:40:52;;;;;;;12.70;9.95;;;;;;;8.48;76.10;101336.47;2846839;82;21168;-66
2020/12/18 09:44:55;;;;;;;14.30;9.25;;;;;;;8.58;76.26;101323.09;2872348;82;21160;-67
2020/12/18 09:48:58;;;;;;;13.70;8.28;;;;;;;8.73;76.39;101327.14;2871872;82;21176;-67
2020/12/18 09:53:01;;;;;;;8.73;7.87;;;;;;;8.83;75.95;101318.56;2872256;82;21160;-67
2020/12/18 09:57:05;;;;;;;14.45;9.75;;;;;;;8.93;75.42;101322.86;2872416;82;21122;-66
2020/12/18 10:01:08;;;;;;;13.62;10.70;;;;;;;9.01;75.32;101311.80;2872084;82;21096;-66
2020/12/18 10:05:11;;;;;;;11.00;8.45;;;;;;;9.10;74.82;101299.78;2871943;82;22210;-67
2020/12/18 10:09:18;;;;;;;13.25;8.90;;;;;;;9.18;74.79;101297.52;2872018;82;21172;-67
2020/12/18 10:13:21;;;;;;;11.63;9.15;;;;;;;9.33;74.51;101294.89;2872068;81;21470;-66
2020/12/18 10:17:24;;;;;;;12.80;9.50;;;;;;;9.43;74.43;101289.38;2872206;82;21144;-66
2020/12/18 10:21:28;;;;;;;12.07;8.18;;;;;;;9.55;74.08;101288.64;2872042;82;21160;-66
2020/12/18 10:25:31;;;;;;;13.98;8.98;;;;;;;9.62;73.94;101292.23;2847697;82;21180;-66
2020/12/18 10:29:35;;;;;;;10.58;7.40;;;;;;;9.75;73.63;101289.70;2872234;82;21307;-67
2020/12/18 10:33:39;;;;;;;13.25;10.03;;;;;;;9.86;73.33;101284.55;2872642;82;21164;-65
2020/12/18 10:37:44;;;;;;;10.35;7.60;;;;;;;9.98;73.32;101281.13;2872424;82;21649;-65
2020/12/18 10:41:47;;;;;;;12.20;7.92;;;;;;;10.10;73.04;101286.12;2872581;82;21132;-66
2020/12/18 10:45:51;;;;;;;12.68;8.95;;;;;;;10.18;72.35;101288.30;2872539;82;21160;-66
2020/12/18 10:49:54;;;;;;;12.33;8.98;;;;;;;10.21;71.93;101288.09;2872412;82;21152;-66
2020/12/18 10:53:57;;;;;;;13.65;8.88;;;;;;;10.18;71.81;101281.66;2883712;80;21141;-66
2020/12/18 10:58:00;;;;;;;14.18;8.93;;;;;;;10.16;71.46;101286.22;2958602;80;21085;-68
2020/12/18 11:02:04;;;;;;;12.98;8.58;;;;;;;10.11;71.41;101279.86;2957960;80;21595;-67
2020/12/18 11:06:06;;;;;;;14.65;10.15;;;;;;;10.07;71.43;101283.67;2957625;80;21141;-66
2020/12/18 11:10:12;;;;;;;11.65;8.88;;;;;;;10.09;71.82;101285.75;2957957;80;21556;-67
2020/12/18 11:14:15;;;;;;;11.83;9.37;;;;;;;10.13;71.74;101281.94;2958249;80;21149;-68
2020/12/18 11:18:18;;;;;;;13.72;9.68;;;;;;;10.14;71.46;101274.34;2957829;80;21471;-65
2020/12/18 11:22:21;;;;;;;15.40;9.48;;;;;;;10.09;71.34;101271.59;2957896;80;21706;-67
2020/12/18 11:26:25;;;;;;;21.23;10.15;;;;;;;10.09;71.32;101273.79;2958220;80;21133;-66
2020/12/18 11:30:32;;;;;;;11.03;8.08;;;;;;;10.05;71.15;101266.97;2957738;80;21157;-67
2020/12/18 11:34:35;;;;;;;9.90;6.97;;;;;;;10.03;71.56;101262.23;2957918;80;21168;-65
2020/12/18 11:38:39;;;;;;;16.45;8.95;;;;;;;10.11;71.69;101265.23;2958002;80;21758;-65
2020/12/18 11:42:42;;;;;;;15.00;8.65;;;;;;;10.14;71.14;101259.72;2957705;80;21717;-67
2020/12/18 11:46:50;;;;;;;12.70;10.10;;;;;;;10.17;71.41;101256.48;2950070;80;21141;-66
2020/12/18 11:50:54;;;;;;;13.15;7.75;;;;;;;10.22;71.29;101251.70;2947450;80;21153;-66
2020/12/18 11:54:57;;;;;;;17.42;10.38;;;;;;;10.24;70.71;101252.48;2947349;80;21165;-67
2020/12/18 11:59:01;;;;;;;16.93;11.00;;;;;;;10.23;70.19;101246.80;2943898;80;21173;-66
2020/12/18 12:03:04;;;;;;;14.87;9.70;;;;;;;10.18;70.42;101243.56;2947200;80;21145;-68
2020/12/18 12:07:07;;;;;;;12.23;8.93;;;;;;;10.15;70.11;101239.31;2947376;80;21161;-67
2020/12/18 12:11:12;;;;;;;14.20;8.53;;;;;;;10.14;70.23;101233.63;2947386;80;21595;-66
2020/12/18 12:15:16;;;;;;;17.43;9.87;;;;;;;10.15;70.30;101236.16;2947755;80;21169;-65
2020/12/18 12:19:19;;;;;;;15.98;10.35;;;;;;;10.17;70.16;101231.22;2946950;80;21145;-66
2020/12/18 12:23:22;;;;;;;16.48;11.78;;;;;;;10.18;70.87;101234.25;2947371;80;21592;-67
2020/12/18 12:27:27;;;;;;;13.68;9.60;;;;;;;10.24;70.71;101247.17;2947333;80;21145;-65
2020/12/18 12:31:31;;;;;;;13.40;10.03;;;;;;;10.26;70.64;101243.44;2946649;80;21560;-67
2020/12/18 12:35:34;;;;;;;16.50;10.85;;;;;;;10.28;70.63;101238.03;2947326;80;21138;-66
2020/12/18 12:39:38;;;;;;;15.55;8.93;;;;;;;10.26;70.74;101234.13;2947431;80;21157;-66
2020/12/18 12:43:41;;;;;;;9.73;7.83;;;;;;;10.23;70.34;101240.15;2947329;80;21125;-66
2020/12/18 12:47:45;;;;;;;12.13;7.12;;;;;;;10.17;70.66;101239.20;2947389;80;21750;-65
2020/12/18 12:51:48;;;;;;;10.68;8.53;;;;;;;10.11;71.16;101238.66;2947376;80;21573;-66
2020/12/18 12:55:51;;;;;;;11.88;7.75;;;;;;;10.10;71.18;101242.27;2947235;80;21158;-65
2020/12/18 12:59:54;;;;;;;12.33;8.25;;;;;;;10.05;71.36;101240.84;2947343;80;21137;-67
2020/12/18 13:03:57;;;;;;;13.62;8.48;;;;;;;10.00;71.45;101237.15;2947368;80;21149;-67
2020/12/18 13:08:02;;;;;;;9.33;7.30;;;;;;;9.98;71.53;101240.39;2947308;80;21157;-67
2020/12/18 13:12:08;;;;;;;15.75;10.08;;;;;;;9.94;71.44;101243.73;2947468;80;21154;-67
2020/12/18 13:16:22;;;;;;;19.82;10.40;;;;;;;9.86;71.44;101246.87;2947307;80;22180;-65
2020/12/18 13:20:25;;;;;;;14.68;10.08;;;;;;;9.82;71.08;101242.69;2947402;80;21217;-67
2020/12/18 13:24:28;;;;;;;7.03;6.17;;;;;;;9.72;70.98;101253.53;2947019;80;21540;-66
2020/12/18 13:28:32;;;;;;;15.60;8.60;;;;;;;9.64;70.72;101247.37;2947050;80;21157;-65
2020/12/18 13:32:35;;;;;;;15.28;9.43;;;;;;;9.52;70.82;101246.34;2947173;80;21580;-67
2020/12/18 13:36:38;;;;;;;18.85;13.08;;;;;;;9.39;70.55;101254.67;2947600;80;21116;-67
2020/12/18 13:40:42;;;;;;;18.45;11.30;;;;;;;9.24;70.32;101249.38;2947389;80;21129;-66
2020/12/18 13:44:47;;;;;;;23.90;13.95;;;;;;;9.09;70.56;101255.61;2947796;80;21161;-66
2020/12/18 13:48:51;;;;;;;22.48;13.93;;;;;;;8.91;70.77;101262.39;2952889;80;21149;-66
2020/12/18 13:52:54;;;;;;;13.62;9.68;;;;;;;8.77;71.11;101261.89;2952407;80;21572;-67
2020/12/18 13:56:59;;;;;;;14.38;9.60;;;;;;;8.62;71.47;101259.64;2952447;80;21113;-65
2020/12/18 14:01:03;;;;;;;9.78;7.62;;;;;;;8.52;71.70;101259.80;2952442;80;21110;-67
2020/12/18 14:05:06;;;;;;;10.88;9.00;;;;;;;8.49;71.84;101261.28;2952520;80;21153;-65
2020/12/18 14:09:10;;;;;;;17.27;10.05;;;;;;;8.46;71.69;101256.16;2952636;80;21174;-62
2020/12/18 14:13:13;;;;;;;19.05;11.53;;;;;;;8.39;71.88;101259.14;2952705;80;21133;-61
2020/12/18 14:17:20;;;;;;;15.38;11.65;;;;;;;8.36;72.04;101262.45;2952582;80;21137;-61
2020/12/18 14:21:23;;;;;;;19.07;11.78;;;;;;;8.37;72.15;101261.52;2952588;80;21576;-62
2020/12/18 14:25:26;;;;;;;22.95;14.33;;;;;;;8.37;71.97;101259.70;2914294;80;21169;-63
2020/12/18 14:29:29;;;;;;;19.10;12.18;;;;;;;8.34;71.95;101261.66;2908947;81;21177;-62
2020/12/18 14:33:33;;;;;;;16.60;11.83;;;;;;;8.29;71.96;101261.95;2908606;81;21145;-62
2020/12/18 14:37:36;;;;;;;21.05;13.40;;;;;;;8.25;72.02;101260.38;2908814;81;21105;-62
2020/12/18 14:41:40;;;;;;;17.80;13.20;;;;;;;8.21;72.05;101262.83;2908550;80;21180;-62
2020/12/18 14:45:44;;;;;;;19.80;14.75;;;;;;;8.17;71.80;101260.84;2908269;81;21149;-63
2020/12/18 14:49:46;;;;;;;18.65;12.98;;;;;;;8.06;71.94;101270.72;2908684;81;21140;-62
2020/12/18 14:53:54;;;;;;;20.75;15.55;;;;;;;7.94;72.22;101268.73;2914444;80;21613;-63
2020/12/18 14:57:58;;;;;;;26.05;18.40;;;;;;;7.83;72.48;101266.68;2956757;80;21587;-64
2020/12/18 15:02:06;;;;;;;26.02;17.92;;;;;;;7.69;72.75;101270.92;2957390;80;21173;-61
2020/12/18 15:06:13;;;;;;;21.10;14.20;;;;;;;7.58;72.84;101278.13;2957097;80;21137;-63
2020/12/18 15:10:16;;;;;;;16.05;10.25;;;;;;;7.47;73.33;101279.18;2956613;80;21164;-64
2020/12/18 15:14:19;;;;;;;28.52;16.05;;;;;;;7.38;73.67;101284.95;2956713;80;21149;-63
2020/12/18 15:18:22;;;;;;;29.98;21.02;;;;;;;7.35;73.75;101287.27;2956646;80;21142;-61
2020/12/18 15:22:26;;;;;;;27.80;18.10;;;;;;;7.25;73.72;101296.16;2956857;80;21137;-63
2020/12/18 15:26:29;;;;;;;31.68;19.65;;;;;;;7.19;73.85;101303.59;2956834;80;21161;-63
2020/12/18 15:30:54;;;;;;;37.23;27.32;;;;;;;7.13;73.80;101303.42;2957416;80;21189;-63
2020/12/18 15:34:57;;;;;;;50.80;33.42;;;;;;;7.13;73.46;101306.91;2786207;85;21204;-63
2020/12/18 15:39:00;;;;;;;63.95;37.17;;;;;;;7.11;73.49;101314.08;2784160;85;21176;-61
2020/12/18 15:43:04;;;;;;;57.95;34.67;;;;;;;7.11;73.17;101310.11;2781476;85;21165;-63
2020/12/18 15:47:07;;;;;;;52.08;35.78;;;;;;;7.10;72.88;101316.82;2780993;85;21566;-61
2020/12/18 15:51:16;;;;;;;55.60;36.28;;;;;;;7.06;72.49;101321.85;2780982;85;21168;-62
2020/12/18 15:55:19;;;;;;;31.85;22.70;;;;;;;6.86;72.73;101317.09;2781291;85;21184;-63
2020/12/18 15:59:21;;;;;;;38.98;23.65;;;;;;;6.63;73.71;101304.55;2781133;85;21165;-62
2020/12/18 16:03:25;;;;;;;29.05;18.40;;;;;;;6.44;74.51;101312.53;2781136;85;21196;-61
2020/12/18 16:07:28;;;;;;;31.10;20.88;;;;;;;6.33;75.00;101303.80;2781257;85;21109;-61
2020/12/18 16:11:32;;;;;;;29.77;19.50;;;;;;;6.27;75.51;101305.39;2748708;85;21634;-62
2020/12/18 16:15:35;;;;;;;30.52;19.20;;;;;;;6.19;75.97;101304.45;2735802;87;21169;-63
2020/12/18 16:19:38;;;;;;;47.85;28.52;;;;;;;6.11;76.35;101304.81;2735591;87;21208;-61
2020/12/18 16:23:41;;;;;;;49.70;33.35;;;;;;;6.03;76.44;101301.66;2735567;87;21503;-61
2020/12/18 16:27:50;;;;;;;41.58;25.23;;;;;;;5.92;76.47;101298.64;2737554;85;21224;-62
2020/12/18 16:31:56;;;;;;;61.77;37.15;;;;;;;5.76;76.55;101309.89;2731702;85;21619;-61
2020/12/18 16:36:00;;;;;;;64.70;39.18;;;;;;;5.65;76.94;101309.06;2748912;85;21171;-62
2020/12/18 16:40:45;;;;;;;76.85;46.68;;;;;;;5.59;76.90;101313.27;2752879;85;21142;-60
2020/12/18 16:44:50;;;;;;;85.00;44.20;;;;;;;5.68;77.21;101322.56;2794519;85;21118;-62
2020/12/18 16:48:58;;;;;;;73.75;44.48;;;;;;;5.78;76.90;101311.13;2746873;84;21358;-62
2020/12/18 16:57:46;;;;;;;114.17;59.58;;;;;;;5.61;75.74;101314.53;2766307;85;21597;-62
2020/12/18 17:02:33;;;;;;;87.22;43.70;;;;;;;5.35;76.64;101313.91;2772138;85;21117;-63
2020/12/18 17:07:15;;;;;;;53.80;30.02;;;;;;;5.11;77.61;101307.42;2625615;90;21153;-64
2020/12/18 17:11:29;;;;;;;57.35;37.17;;;;;;;4.97;78.56;101305.38;2986897;78;23021;-62
2020/12/18 17:15:35;;;;;;;98.58;57.83;;;;;;;4.89;78.63;101309.65;2916505;81;21142;-60
2020/12/18 17:19:40;;;;;;;207.87;112.40;;;;;;;5.07;78.62;101311.13;2916583;81;21127;-59
2020/12/18 17:23:43;;;;;;;166.82;89.77;;;;;;;5.20;78.02;101316.73;2916257;80;21697;-60
2020/12/18 17:27:46;;;;;;;38.75;25.30;;;;;;;5.29;77.46;101318.51;2860251;83;21175;-61
2020/12/18 17:31:49;;;;;;;62.33;33.05;;;;;;;5.27;76.25;101310.28;2838077;83;21142;-61
2020/12/18 17:35:55;;;;;;;140.70;85.38;;;;;;;5.28;76.74;101308.04;2841635;82;21178;-60
2020/12/18 17:40:31;;;;;;;203.05;118.90;;;;;;;5.22;75.87;101308.31;2832612;84;21138;-67
2020/12/18 17:44:42;;;;;;;145.82;78.28;;;;;;;5.10;74.97;101309.22;2832739;84;21153;-68
2020/12/18 17:48:49;;;;;;;104.60;54.27;;;;;;;4.75;77.08;101295.73;2832756;84;21119;-66
2020/12/18 17:53:22;;;;;;;125.78;70.35;;;;;;;4.51;78.17;101293.63;2833155;82;21153;-68
2020/12/18 17:57:29;;;;;;;92.67;52.58;;;;;;;4.52;78.27;101286.98;2833140;84;21122;-70
2020/12/18 18:02:07;;;;;;;73.50;46.02;;;;;;;4.58;77.63;101286.73;2832737;82;21166;-70
2020/12/18 18:06:11;;;;;;;80.20;41.20;;;;;;;4.64;77.47;101276.41;2832824;84;21146;-69
2020/12/18 18:10:59;;;;;;;50.88;31.80;;;;;;;4.53;77.95;101278.16;2810796;84;21212;-68
2020/12/18 18:15:39;;;;;;;53.25;34.95;;;;;;;4.32;79.56;101269.33;2842263;82;21162;-65
2020/12/18 18:19:53;;;;;;;50.15;34.53;;;;;;;4.17;80.35;101266.02;2803083;84;21177;-68
2020/12/18 18:24:00;;;;;;;;;;;;;;;4.04;80.53;101264.32;2798811;85;21174;-69
2020/12/18 18:32:42;;;;;;;68.55;43.30;;;;;;;3.91;81.91;101256.89;2833383;83;22179;-66
2020/12/18 18:36:50;;;;;;;80.30;49.30;;;;;;;3.79;81.77;101247.69;2851476;82;21117;-68
2020/12/18 18:41:23;;;;;;;127.85;69.07;;;;;;;3.69;81.99;101247.17;2852399;83;21113;-65
2020/12/18 18:45:28;;;;;;;175.27;108.15;;;;;;;3.58;82.50;101238.81;2852613;83;21164;-65
2020/12/18 18:50:12;;;;;;;298.95;144.10;;;;;;;3.49;82.97;101241.33;2852647;82;21525;-66
2020/12/18 18:54:24;;;;;;;264.72;117.33;;;;;;;3.48;83.46;101239.61;2856462;82;21549;-68
2020/12/18 18:58:34;;;;;;;79.12;45.45;;;;;;;3.46;83.60;101237.50;2861005;82;21105;-66
2020/12/18 19:03:21;;;;;;;123.13;67.97;;;;;;;3.47;83.45;101230.00;2853009;81;21136;-66
2020/12/18 19:07:35;;;;;;;148.30;78.62;;;;;;;3.37;83.23;101226.86;2852504;83;21152;-66